Time;durP1;ratioP1;P1;durP2;ratioP2;P2;SDS_P1;SDS_P2;PMS_P1;PMS_P2;Temp;Humidity;BMP_temperature;BMP_pressure;BME280_temperature;BME280_humidity;BME280_pressure;Samples;Min_cycle;Max_cycle;Signal;HPM_P1;HPM_P2
2024/02/13 00:01:17;;;;;;;49.40;25.30;;;;;;;11.87;72.04;99029.27;108194;1254;72991;-67
2024/02/13 00:03:46;;;;;;;51.50;25.70;;;;;;;11.84;72.23;99033.68;108108;1254;69908;-65
2024/02/13 00:06:14;;;;;;;40.60;23.10;;;;;;;11.87;72.19;99038.41;108090;1254;72671;-66
2024/02/13 00:08:41;;;;;;;43.30;23.40;;;;;;;11.81;72.25;99041.05;108017;1253;59856;-66
2024/02/13 00:11:13;;;;;;;48.40;23.80;;;;;;;11.83;72.27;99046.05;108059;1252;60226;-66
2024/02/13 00:13:45;;;;;;;40.70;22.30;;;;;;;11.76;72.46;99051.18;108045;1252;72427;-67
2024/02/13 00:16:17;;;;;;;44.80;23.10;;;;;;;11.78;72.34;99051.95;107993;1259;70226;-66
2024/02/13 00:18:52;;;;;;;42.60;23.50;;;;;;;11.80;72.40;99050.26;108141;1254;71505;-65
2024/02/13 00:21:19;;;;;;;40.50;22.60;;;;;;;11.75;72.53;99051.81;108125;1254;60818;-66
2024/02/13 00:23:47;;;;;;;44.30;22.90;;;;;;;11.67;72.78;99046.80;108137;1257;60075;-66
2024/02/13 00:26:15;;;;;;;49.60;24.10;;;;;;;11.65;72.78;99051.86;108171;1252;71812;-63
2024/02/13 00:28:44;;;;;;;49.90;23.70;;;;;;;11.56;73.16;99058.90;108130;1254;70288;-64
2024/02/13 00:31:12;;;;;;;46.80;24.20;;;;;;;11.55;73.21;99059.27;108077;1254;71446;-67
2024/02/13 00:33:40;;;;;;;44.80;24.30;;;;;;;11.61;73.14;99052.63;108208;1251;61384;-66
2024/02/13 00:36:08;;;;;;;44.50;22.70;;;;;;;11.63;73.17;99045.98;108196;1256;59249;-64
2024/02/13 00:38:35;;;;;;;50.80;23.60;;;;;;;11.61;73.43;99048.40;108230;1251;73015;-66
2024/02/13 00:41:04;;;;;;;44.90;22.60;;;;;;;11.66;73.33;99044.93;108249;1254;69987;-65
2024/02/13 00:43:32;;;;;;;43.50;23.80;;;;;;;11.69;73.07;99036.16;108217;1253;71203;-66
2024/02/13 00:46:00;;;;;;;48.90;24.00;;;;;;;11.73;72.75;99034.66;108230;1251;60836;-66
2024/02/13 00:48:30;;;;;;;42.10;23.70;;;;;;;11.67;72.87;99037.70;108313;1251;59531;-66
2024/02/13 00:50:58;;;;;;;39.10;21.60;;;;;;;11.69;72.81;99031.02;108245;1251;73244;-65
2024/02/13 00:53:25;;;;;;;40.60;20.70;;;;;;;11.68;72.62;99039.89;108239;1251;69959;-66
2024/02/13 00:55:53;;;;;;;50.80;22.60;;;;;;;11.74;72.21;99051.50;108233;1251;71949;-65
2024/02/13 00:58:20;;;;;;;44.80;23.40;;;;;;;11.69;72.29;99051.80;108241;1254;60862;-67
2024/02/13 01:00:49;;;;;;;47.20;21.80;;;;;;;11.72;72.13;99052.66;108284;1251;62780;-65
2024/02/13 01:03:16;;;;;;;43.30;22.20;;;;;;;11.69;72.22;99047.92;108248;1251;71672;-65
2024/02/13 01:05:44;;;;;;;40.60;21.70;;;;;;;11.66;72.23;99049.85;108221;1251;69069;-66
2024/02/13 01:08:12;;;;;;;48.70;24.90;;;;;;;11.55;72.52;99053.84;108248;1251;72654;-66
2024/02/13 01:10:39;;;;;;;56.30;25.30;;;;;;;11.52;72.68;99047.13;108252;1254;60114;-66
2024/02/13 01:13:07;;;;;;;55.40;24.50;;;;;;;11.54;72.50;99039.98;108219;1251;60718;-66
2024/02/13 01:15:35;;;;;;;51.70;27.10;;;;;;;11.57;72.30;99035.29;108247;1251;73801;-65
2024/02/13 01:18:03;;;;;;;43.90;21.60;;;;;;;11.64;71.95;99035.38;108190;1251;69961;-64
2024/02/13 01:20:30;;;;;;;39.40;21.80;;;;;;;11.54;72.13;99040.35;108165;1251;73324;-66
2024/02/13 01:22:58;;;;;;;47.50;23.30;;;;;;;11.55;72.11;99040.45;108215;1254;60342;-63
2024/02/13 01:25:25;;;;;;;39.10;21.10;;;;;;;11.56;72.00;99043.02;108217;1251;60351;-66
2024/02/13 01:27:55;;;;;;;45.00;22.80;;;;;;;11.55;71.89;99042.04;108331;1251;73778;-65
2024/02/13 01:30:23;;;;;;;35.60;20.20;;;;;;;11.48;72.16;99041.56;108274;1251;70311;-66
2024/02/13 01:32:51;;;;;;;47.50;23.40;;;;;;;11.46;72.18;99035.73;108199;1254;70695;-66
2024/02/13 01:35:19;;;;;;;38.70;21.00;;;;;;;11.58;71.77;99035.77;108243;1254;60441;-66
2024/02/13 01:37:46;;;;;;;52.70;24.40;;;;;;;11.42;72.15;99042.64;108191;1253;60513;-66
2024/02/13 01:40:16;;;;;;;45.70;22.40;;;;;;;11.33;72.21;99043.52;108123;1254;73850;-65
2024/02/13 01:42:48;;;;;;;38.30;19.20;;;;;;;11.30;72.35;99043.67;108317;1254;70123;-66
2024/02/13 01:45:16;;;;;;;35.20;17.80;;;;;;;11.22;72.81;99045.73;108102;1254;71716;-66
2024/02/13 01:47:44;;;;;;;37.90;20.10;;;;;;;11.30;72.18;99048.42;108043;1253;60832;-66
2024/02/13 01:50:14;;;;;;;36.40;17.90;;;;;;;11.30;72.09;99048.45;108266;1254;60322;-64
2024/02/13 01:52:42;;;;;;;44.90;21.60;;;;;;;11.29;72.09;99050.23;108175;1254;72642;-67
2024/02/13 01:55:12;;;;;;;40.60;19.60;;;;;;;11.33;71.74;99049.16;108067;1254;70191;-64
2024/02/13 01:57:40;;;;;;;38.30;19.40;;;;;;;11.26;71.80;99050.59;108074;1254;71644;-65
2024/02/13 02:00:13;;;;;;;41.40;18.40;;;;;;;11.25;71.68;99051.88;108061;1253;60536;-66
2024/02/13 02:02:42;;;;;;;28.90;16.00;;;;;;;11.25;71.76;99053.99;108111;1254;60380;-66
2024/02/13 02:05:13;;;;;;;27.30;13.30;;;;;;;11.08;72.57;99051.25;108107;1252;73841;-65
2024/02/13 02:07:42;;;;;;;26.90;15.00;;;;;;;10.90;73.28;99060.69;108110;1254;69760;-68
2024/02/13 02:10:09;;;;;;;32.70;15.40;;;;;;;10.92;73.20;99060.76;108187;1253;70536;-63
2024/02/13 02:12:39;;;;;;;28.80;15.40;;;;;;;10.95;72.81;99056.17;108104;1254;61453;-64
2024/02/13 02:15:10;;;;;;;40.70;16.60;;;;;;;11.08;72.04;99053.52;108102;1253;60373;-66
2024/02/13 02:17:38;;;;;;;32.00;14.80;;;;;;;11.14;71.46;99054.75;108148;1253;73805;-66
2024/02/13 02:20:07;;;;;;;28.40;14.00;;;;;;;11.03;71.85;99056.98;108213;1254;70733;-68
2024/02/13 02:22:34;;;;;;;32.00;14.30;;;;;;;11.08;71.83;99054.58;108180;1254;70548;-64
2024/02/13 02:25:06;;;;;;;32.30;15.20;;;;;;;11.06;71.50;99056.98;108133;1254;60342;-66
2024/02/13 02:27:35;;;;;;;31.00;13.30;;;;;;;10.96;71.88;99058.56;108092;1253;60533;-66
2024/02/13 02:30:06;;;;;;;32.10;14.60;;;;;;;10.93;72.26;99062.23;108070;1254;73908;-66
2024/02/13 02:32:34;;;;;;;23.00;12.50;;;;;;;11.00;72.21;99052.21;108161;1256;69845;-65
2024/02/13 02:35:01;;;;;;;30.90;12.90;;;;;;;11.18;71.28;99049.64;108288;1251;72658;-65
2024/02/13 02:37:29;;;;;;;29.90;14.20;;;;;;;11.08;71.75;99051.59;108300;1253;60942;-64
2024/02/13 02:39:56;;;;;;;30.10;12.70;;;;;;;11.23;70.90;99057.27;108246;1251;60214;-64
2024/02/13 02:42:24;;;;;;;31.50;14.30;;;;;;;11.23;70.93;99059.17;108199;1251;73844;-65
2024/02/13 02:44:52;;;;;;;26.20;14.60;;;;;;;11.15;71.14;99067.02;108255;1251;70424;-65
2024/02/13 02:47:20;;;;;;;33.90;15.40;;;;;;;11.11;71.07;99066.01;108131;1254;71370;-66
2024/02/13 02:49:47;;;;;;;28.10;13.90;;;;;;;11.13;70.87;99067.32;108150;1254;60466;-65
2024/02/13 02:52:15;;;;;;;28.30;13.40;;;;;;;11.01;71.01;99072.90;108209;1253;60341;-66
2024/02/13 02:54:43;;;;;;;26.80;12.60;;;;;;;11.01;71.34;99073.05;108217;1254;76043;-66
2024/02/13 02:57:11;;;;;;;24.90;13.50;;;;;;;10.97;71.51;99068.20;108157;1254;70303;-66
2024/02/13 02:59:39;;;;;;;27.40;12.40;;;;;;;11.25;69.99;99061.38;108171;1253;72746;-66
2024/02/13 03:02:07;;;;;;;23.90;12.10;;;;;;;11.36;69.21;99060.55;108206;1253;60418;-67
2024/02/13 03:04:35;;;;;;;28.20;13.70;;;;;;;11.29;69.29;99063.43;108339;1253;60344;-66
2024/02/13 03:07:03;;;;;;;32.40;12.50;;;;;;;11.30;68.84;99061.42;108293;1254;73849;-65
2024/02/13 03:09:31;;;;;;;28.50;14.20;;;;;;;11.31;68.55;99059.79;108239;1253;70119;-65
2024/02/13 03:11:59;;;;;;;27.60;13.90;;;;;;;11.36;68.15;99063.92;108201;1253;73127;-65
2024/02/13 03:14:27;;;;;;;30.60;13.40;;;;;;;11.47;67.32;99069.40;108221;1253;60453;-65
2024/02/13 03:16:55;;;;;;;26.90;12.90;;;;;;;11.40;67.18;99074.20;108292;1253;60257;-66
2024/02/13 03:19:22;;;;;;;28.40;13.50;;;;;;;11.28;67.25;99084.23;108220;1254;72620;-66
2024/02/13 03:21:50;;;;;;;29.80;13.00;;;;;;;11.16;67.78;99086.29;108244;1253;69959;-66
2024/02/13 03:24:17;;;;;;;26.90;13.10;;;;;;;10.98;68.35;99083.22;108185;1253;71369;-64
2024/02/13 03:26:45;;;;;;;26.50;14.00;;;;;;;11.04;68.31;99084.29;108199;1254;59761;-65
2024/02/13 03:29:12;;;;;;;29.50;14.50;;;;;;;11.18;67.74;99081.45;108268;1252;60339;-66
2024/02/13 03:31:40;;;;;;;25.20;13.40;;;;;;;11.10;67.61;99081.02;108223;1252;72526;-65
2024/02/13 03:34:07;;;;;;;29.80;14.50;;;;;;;10.97;67.78;99080.84;108150;1254;69919;-66
2024/02/13 03:36:35;;;;;;;29.50;14.10;;;;;;;10.77;68.28;99080.17;108133;1254;72468;-66
2024/02/13 03:39:06;;;;;;;42.40;15.90;;;;;;;10.73;68.62;99081.79;108154;1253;60891;-66
2024/02/13 03:41:42;;;;;;;32.10;14.50;;;;;;;10.77;68.79;99085.83;108136;1253;60282;-65
2024/02/13 03:44:11;;;;;;;34.30;17.20;;;;;;;10.81;68.91;99081.19;108071;1253;72965;-65
2024/02/13 03:46:39;;;;;;;39.40;16.50;;;;;;;10.85;68.62;99085.04;108091;1253;70129;-67
2024/02/13 03:49:10;;;;;;;24.50;13.50;;;;;;;10.78;68.46;99087.17;108041;1253;71447;-67
2024/02/13 03:51:38;;;;;;;31.10;14.70;;;;;;;10.79;68.17;99084.62;108024;1254;59716;-65
2024/02/13 03:54:08;;;;;;;36.50;16.00;;;;;;;10.67;68.30;99092.48;108113;1252;59989;-66
2024/02/13 03:56:39;;;;;;;32.70;15.90;;;;;;;10.57;68.61;99103.88;108137;1254;73787;-65
2024/02/13 03:59:08;;;;;;;35.00;14.90;;;;;;;10.61;68.46;99105.60;108048;1252;70281;-64
2024/02/13 04:01:39;;;;;;;33.60;15.60;;;;;;;10.39;69.71;99099.05;108162;1252;71191;-65
2024/02/13 04:04:08;;;;;;;28.20;15.90;;;;;;;10.51;69.12;99105.27;108040;1253;60273;-67
2024/02/13 04:06:36;;;;;;;38.30;15.30;;;;;;;10.58;68.72;99109.09;108145;1253;60520;-65
2024/02/13 04:09:06;;;;;;;36.90;14.50;;;;;;;10.44;69.52;99112.84;108198;1252;73858;-64
2024/02/13 04:11:35;;;;;;;43.10;16.00;;;;;;;10.49;69.63;99112.77;108147;1253;68975;-66
2024/02/13 04:14:03;;;;;;;35.30;13.60;;;;;;;10.57;69.64;99115.65;108136;1254;71456;-66
2024/02/13 04:16:30;;;;;;;32.60;14.20;;;;;;;10.51;69.81;99118.64;108117;1254;60857;-67
2024/02/13 04:18:58;;;;;;;37.30;15.50;;;;;;;10.46;70.08;99123.63;108192;1253;60779;-66
2024/02/13 04:21:26;;;;;;;26.10;13.10;;;;;;;10.58;69.87;99119.30;108093;1252;73725;-66
2024/02/13 04:23:54;;;;;;;36.40;16.10;;;;;;;10.35;70.35;99126.42;108105;1253;70016;-66
2024/02/13 04:26:22;;;;;;;32.00;15.90;;;;;;;10.46;70.07;99129.89;108100;1253;70687;-66
2024/02/13 04:29:03;;;;;;;29.20;13.90;;;;;;;10.49;69.97;99128.73;108215;1257;60957;-66
2024/02/13 04:31:31;;;;;;;29.80;14.80;;;;;;;10.71;68.95;99126.48;108199;1252;60330;-65
2024/02/13 04:33:58;;;;;;;29.60;13.90;;;;;;;10.50;69.47;99133.73;108188;1251;73877;-62
2024/02/13 04:36:27;;;;;;;42.00;17.50;;;;;;;10.42;69.82;99132.61;108224;1251;68679;-65
2024/02/13 04:38:54;;;;;;;31.10;13.50;;;;;;;10.31;70.17;99139.48;108319;1251;72454;-66
2024/02/13 04:41:22;;;;;;;31.50;16.80;;;;;;;10.13;71.07;99136.85;108266;1251;63931;-67
2024/02/13 04:43:54;;;;;;;26.70;11.80;;;;;;;10.06;71.39;99139.69;108252;1251;62003;-66
2024/02/13 04:46:25;;;;;;;30.10;13.40;;;;;;;10.06;71.97;99140.70;108204;1251;73892;-66
2024/02/13 04:48:53;;;;;;;28.70;14.60;;;;;;;10.00;72.43;99145.42;108210;1251;68943;-66
2024/02/13 04:51:23;;;;;;;30.10;15.10;;;;;;;10.29;71.18;99148.50;108264;1253;71364;-66
2024/02/13 04:53:51;;;;;;;39.20;17.20;;;;;;;10.48;70.36;99149.66;108260;1253;60439;-66
2024/02/13 04:56:19;;;;;;;42.30;17.10;;;;;;;10.36;70.68;99156.77;108297;1251;59629;-66
2024/02/13 04:58:47;;;;;;;41.40;16.40;;;;;;;10.43;70.28;99158.33;108263;1251;72642;-67
2024/02/13 05:01:14;;;;;;;42.30;16.30;;;;;;;10.43;70.15;99160.95;108217;1251;68720;-64
2024/02/13 05:07:19;;;;;;;32.10;15.40;;;;;;;10.50;69.63;99161.81;108244;1251;72629;-65
2024/02/13 05:09:17;;;;;;;28.40;14.20;;;;;;;10.37;69.34;99160.95;108332;1251;60956;-67
2024/02/13 05:11:45;;;;;;;34.90;15.20;;;;;;;10.26;69.46;99168.81;108272;1251;73739;-67
2024/02/13 05:14:12;;;;;;;30.60;15.30;;;;;;;10.21;69.97;99167.14;108238;1250;69052;-67
2024/02/13 05:16:41;;;;;;;28.30;14.60;;;;;;;10.16;70.20;99172.30;108220;1251;71398;-66
2024/02/13 05:19:08;;;;;;;34.80;16.80;;;;;;;10.13;70.27;99178.44;108273;1251;60289;-65
2024/02/13 05:21:36;;;;;;;33.90;16.70;;;;;;;10.11;70.20;99182.56;108197;1251;60238;-67
2024/02/13 05:24:05;;;;;;;42.80;17.90;;;;;;;10.18;69.89;99187.30;108220;1251;74049;-67
2024/02/13 05:26:34;;;;;;;39.20;18.10;;;;;;;10.16;69.95;99195.65;108214;1251;70123;-67
2024/02/13 05:29:03;;;;;;;39.80;17.70;;;;;;;10.07;70.32;99197.48;108217;1251;72650;-67
2024/02/13 05:31:31;;;;;;;34.30;17.50;;;;;;;10.08;70.24;99197.62;108230;1253;60969;-67
2024/02/13 05:33:58;;;;;;;37.00;15.80;;;;;;;10.01;70.46;99201.49;108180;1256;60423;-66
2024/02/13 05:36:26;;;;;;;32.50;16.10;;;;;;;9.97;70.62;99203.95;108182;1251;73826;-67
2024/02/13 05:38:53;;;;;;;34.10;15.90;;;;;;;10.00;70.75;99206.95;108183;1251;70513;-64
2024/02/13 05:41:21;;;;;;;34.90;15.40;;;;;;;9.96;71.18;99212.27;108456;1254;71363;-65
2024/02/13 05:43:49;;;;;;;37.70;15.90;;;;;;;9.95;71.24;99216.67;108234;1251;60900;-65
2024/02/13 05:46:18;;;;;;;40.10;17.20;;;;;;;10.07;70.83;99212.95;108247;1253;61082;-65
2024/02/13 05:48:48;;;;;;;33.60;15.80;;;;;;;10.04;70.81;99216.42;108242;1251;73925;-66
2024/02/13 05:51:15;;;;;;;39.90;17.20;;;;;;;10.16;70.29;99217.57;108213;1251;70273;-65
2024/02/13 05:53:43;;;;;;;29.60;15.80;;;;;;;10.07;70.73;99219.58;108184;1251;70581;-66
2024/02/13 05:56:12;;;;;;;36.90;17.40;;;;;;;10.06;70.64;99219.14;108282;1251;60860;-66
2024/02/13 05:58:47;;;;;;;39.20;16.60;;;;;;;10.20;70.20;99225.42;108185;1251;60218;-66
2024/02/13 06:01:15;;;;;;;30.70;17.00;;;;;;;10.20;70.12;99226.83;108139;1251;72571;-66
2024/02/13 06:03:42;;;;;;;33.40;16.70;;;;;;;10.28;69.74;99226.63;108194;1251;69978;-67
2024/02/13 06:06:10;;;;;;;41.40;17.70;;;;;;;10.28;69.85;99224.35;108321;1253;71534;-66
2024/02/13 06:08:45;;;;;;;45.30;20.30;;;;;;;10.36;69.35;99227.87;108135;1254;60456;-64
2024/02/13 06:11:14;;;;;;;36.80;16.50;;;;;;;10.38;69.25;99230.54;108141;1253;59560;-65
2024/02/13 06:13:55;;;;;;;26.90;14.30;;;;;;;10.14;70.20;99236.27;108150;1252;72624;-68
2024/02/13 06:16:22;;;;;;;29.60;16.00;;;;;;;10.10;70.48;99241.02;108193;1256;70250;-67
2024/02/13 06:18:50;;;;;;;38.90;19.10;;;;;;;10.30;69.82;99241.09;108154;1254;72896;-67
2024/02/13 06:21:19;;;;;;;37.90;19.50;;;;;;;10.45;69.35;99249.80;108327;1254;60427;-68
2024/02/13 06:23:51;;;;;;;33.50;18.90;;;;;;;10.40;69.34;99244.48;108165;1254;60338;-68
2024/02/13 06:26:19;;;;;;;36.00;17.50;;;;;;;10.41;69.29;99241.13;108107;1254;73776;-66
2024/02/13 06:28:47;;;;;;;38.90;16.90;;;;;;;10.10;70.32;99244.87;108098;1254;68711;-67
2024/02/13 06:31:14;;;;;;;34.80;17.10;;;;;;;10.22;69.79;99245.14;108127;1254;72406;-66
2024/02/13 06:33:42;;;;;;;33.30;16.00;;;;;;;10.10;70.25;99243.27;108231;1256;60372;-67
2024/02/13 06:36:10;;;;;;;35.10;19.30;;;;;;;10.22;69.69;99244.61;108349;1251;60402;-66
2024/02/13 06:38:38;;;;;;;42.20;19.90;;;;;;;10.40;69.32;99248.31;108315;1251;73146;-66
2024/02/13 06:41:05;;;;;;;39.50;18.70;;;;;;;10.52;69.19;99249.10;108387;1251;70147;-66
2024/02/13 06:43:34;;;;;;;40.80;19.90;;;;;;;10.63;69.71;99248.17;108293;1251;71231;-67
2024/02/13 06:46:02;;;;;;;34.40;16.60;;;;;;;10.89;69.85;99249.50;108242;1251;60305;-66
2024/02/13 07:30:25;;;;;;;20.40;9.60;;;;;;;17.63;50.45;99240.91;104947;1290;600095;-67
2024/02/13 07:32:54;;;;;;;19.10;9.70;;;;;;;18.01;50.18;99239.49;107293;1267;60356;-67
2024/02/13 07:35:22;;;;;;;17.90;8.40;;;;;;;18.47;48.54;99244.69;107288;1266;60037;-67
2024/02/13 07:37:50;;;;;;;19.20;7.90;;;;;;;18.49;46.36;99249.90;107293;1265;71084;-67
2024/02/13 07:40:18;;;;;;;18.80;8.50;;;;;;;18.59;46.14;99250.78;108097;1254;70023;-65
2024/02/13 07:42:45;;;;;;;22.50;10.50;;;;;;;18.66;45.39;99251.30;108033;1254;72605;-66
2024/02/13 07:45:13;;;;;;;20.50;10.70;;;;;;;18.81;45.27;99254.33;108160;1251;105402;-67
2024/02/13 07:47:41;;;;;;;27.20;10.10;;;;;;;18.87;45.10;99259.30;108180;1251;59871;-66
2024/02/13 07:50:09;;;;;;;21.80;9.30;;;;;;;19.00;44.93;99258.74;108265;1251;71462;-65
2024/02/13 07:52:37;;;;;;;21.70;11.30;;;;;;;19.01;44.33;99254.40;108357;1251;70172;-65
2024/02/13 07:55:06;;;;;;;30.10;11.30;;;;;;;19.21;44.93;99257.36;108240;1252;75254;-67
2024/02/13 07:57:35;;;;;;;23.00;9.60;;;;;;;19.34;44.63;99260.96;108247;1251;60104;-67
2024/02/13 08:00:03;;;;;;;23.70;11.00;;;;;;;19.51;43.76;99265.02;108172;1251;59529;-67
2024/02/13 08:02:31;;;;;;;18.90;10.90;;;;;;;19.67;43.94;99269.17;108170;1251;73098;-67
2024/02/13 08:04:59;;;;;;;23.00;10.40;;;;;;;20.01;43.60;99267.20;108283;1251;70744;-66
2024/02/13 08:07:27;;;;;;;19.80;9.90;;;;;;;20.07;42.86;99279.13;108248;1251;73294;-64
2024/02/13 08:09:55;;;;;;;21.80;10.20;;;;;;;19.68;42.54;99287.27;108258;1251;59535;-67
2024/02/13 08:12:24;;;;;;;21.40;10.80;;;;;;;19.36;43.40;99287.70;108276;1251;59689;-68
2024/02/13 08:14:52;;;;;;;18.10;8.90;;;;;;;19.06;43.21;99288.48;108142;1251;75261;-67
2024/02/13 08:17:19;;;;;;;17.80;8.90;;;;;;;18.82;44.16;99283.39;108168;1251;69927;-67
2024/02/13 08:19:47;;;;;;;22.50;9.00;;;;;;;18.65;44.40;99285.91;108184;1254;72334;-67
2024/02/13 08:22:18;;;;;;;20.00;8.50;;;;;;;18.43;44.89;99288.41;108207;1251;59197;-67
2024/02/13 08:24:45;;;;;;;18.00;9.80;;;;;;;18.12;45.45;99286.48;108158;1251;60778;-66
2024/02/13 08:27:18;;;;;;;22.10;9.80;;;;;;;18.08;45.82;99291.64;108117;1258;71996;-66
2024/02/13 08:29:46;;;;;;;15.60;7.60;;;;;;;17.88;45.80;99297.33;108100;1258;72480;-65
2024/02/13 08:32:13;;;;;;;21.90;9.00;;;;;;;17.83;45.76;99296.52;108107;1254;72668;-65
2024/02/13 08:34:41;;;;;;;20.20;8.80;;;;;;;18.01;45.91;99294.54;108128;1253;60692;-66
2024/02/13 08:37:08;;;;;;;23.20;9.80;;;;;;;18.31;45.35;99294.39;108184;1252;59646;-66
2024/02/13 08:39:36;;;;;;;17.30;9.30;;;;;;;18.49;44.97;99305.68;108200;1253;73196;-66
2024/02/13 08:42:04;;;;;;;19.40;9.50;;;;;;;18.58;45.29;99305.16;108139;1256;67827;-66
2024/02/13 08:44:34;;;;;;;20.80;8.10;;;;;;;18.83;44.47;99309.99;108173;1253;72627;-67
2024/02/13 08:47:03;;;;;;;16.70;8.30;;;;;;;19.04;44.07;99311.44;108063;1254;60760;-66
2024/02/13 08:49:31;;;;;;;18.30;8.40;;;;;;;19.10;43.80;99315.17;108149;1256;59637;-65
2024/02/13 08:51:59;;;;;;;18.70;8.30;;;;;;;18.99;43.89;99317.60;108127;1254;71315;-68
2024/02/13 08:54:26;;;;;;;22.40;9.00;;;;;;;18.94;43.71;99319.02;108039;1253;71154;-67
2024/02/13 08:56:54;;;;;;;19.10;8.50;;;;;;;18.84;43.96;99315.08;108146;1252;71330;-67
2024/02/13 08:59:22;;;;;;;20.50;9.00;;;;;;;19.03;43.76;99314.02;108225;1254;61113;-69
2024/02/13 09:01:49;;;;;;;20.80;9.00;;;;;;;19.28;43.56;99308.62;108152;1253;60018;-66
2024/02/13 09:05:12;;;;;;;21.30;9.90;;;;;;;18.44;45.55;99309.05;106018;1280;600144;-67
2024/02/13 09:07:41;;;;;;;20.40;10.20;;;;;;;19.21;43.48;99304.85;107481;1264;59215;-68
2024/02/13 09:10:12;;;;;;;21.40;9.40;;;;;;;19.22;43.26;99301.16;107516;1264;58757;-67
2024/02/13 09:12:44;;;;;;;26.40;10.80;;;;;;;19.08;43.56;99301.67;107486;1267;74973;-65
2024/02/13 09:15:12;;;;;;;20.70;10.10;;;;;;;19.06;43.78;99300.38;107445;1263;71974;-66
2024/02/13 09:17:44;;;;;;;15.80;8.80;;;;;;;19.30;44.38;99297.30;107397;1267;219550;-66
2024/02/13 09:20:15;;;;;;;18.60;8.30;;;;;;;19.95;42.93;99297.83;107692;1260;62369;-68
2024/02/13 09:22:44;;;;;;;24.90;9.70;;;;;;;20.11;42.12;99298.17;107575;1266;60273;-68
2024/02/13 09:25:12;;;;;;;17.90;8.10;;;;;;;20.33;42.18;99296.61;108124;1254;71470;-66
2024/02/13 09:27:40;;;;;;;16.80;7.60;;;;;;;20.56;41.18;99295.58;107990;1260;68983;-67
2024/02/13 09:30:10;;;;;;;17.20;7.20;;;;;;;20.47;41.23;99293.73;108003;1258;72661;-67
2024/02/13 09:32:38;;;;;;;19.00;8.40;;;;;;;20.48;41.29;99291.27;108006;1257;60340;-67
2024/02/13 09:35:07;;;;;;;21.30;8.50;;;;;;;20.50;41.19;99297.17;107922;1257;59271;-68
2024/02/13 09:37:42;;;;;;;18.30;6.80;;;;;;;20.43;41.11;99303.36;107908;1257;73918;-68
2024/02/13 09:40:14;;;;;;;22.30;7.20;;;;;;;19.95;41.51;99308.19;107899;1257;69987;-67
2024/02/13 09:42:46;;;;;;;18.90;7.40;;;;;;;19.86;42.24;99306.98;107978;1260;74889;-68
2024/02/13 09:45:13;;;;;;;19.00;6.30;;;;;;;20.20;42.11;99306.13;107821;1255;62233;-66
2024/02/13 09:47:41;;;;;;;21.60;7.50;;;;;;;20.31;40.99;99306.56;107822;1258;59663;-69
2024/02/13 09:50:12;;;;;;;14.80;6.30;;;;;;;20.56;41.14;99307.65;108002;1256;71924;-67
2024/02/13 09:52:54;;;;;;;31.90;6.80;;;;;;;20.89;40.91;99306.77;107842;1257;68541;-67
2024/02/13 09:55:22;;;;;;;18.20;7.00;;;;;;;21.56;39.66;99305.15;107898;1260;73740;-67
2024/02/13 09:57:50;;;;;;;14.40;6.80;;;;;;;21.60;39.01;99304.43;108068;1256;59529;-71
2024/02/13 10:00:18;;;;;;;16.50;6.80;;;;;;;21.58;39.07;99308.66;108045;1257;59554;-67
2024/02/13 10:02:49;;;;;;;20.70;7.40;;;;;;;21.68;38.81;99309.86;107891;1258;73071;-69
2024/02/13 10:05:17;;;;;;;14.00;7.10;;;;;;;21.76;38.99;99308.73;107857;1257;72641;-67
2024/02/13 10:07:45;;;;;;;17.60;7.20;;;;;;;21.95;39.14;99306.40;107879;1258;71790;-66
2024/02/13 10:10:13;;;;;;;21.70;7.30;;;;;;;22.32;38.79;99307.63;108272;1251;62993;-66
2024/02/13 10:12:55;;;;;;;17.40;6.80;;;;;;;22.27;38.08;99306.80;108290;1254;60110;-68
2024/02/13 10:15:24;;;;;;;17.50;6.40;;;;;;;21.88;38.28;99303.84;108100;1254;70944;-68
2024/02/13 10:17:52;;;;;;;17.40;6.10;;;;;;;21.54;38.68;99311.39;108094;1255;68652;-68
2024/02/13 10:20:19;;;;;;;20.60;6.90;;;;;;;21.29;39.36;99308.09;108224;1254;72803;-69
2024/02/13 10:22:47;;;;;;;17.90;6.20;;;;;;;21.37;39.04;99311.23;108153;1254;59548;-67
2024/02/13 10:25:21;;;;;;;21.20;7.80;;;;;;;21.16;39.57;99314.84;108255;1253;59573;-68
2024/02/13 10:27:54;;;;;;;20.60;7.60;;;;;;;20.64;40.31;99316.27;108114;1253;73393;-67
2024/02/13 10:30:22;;;;;;;19.30;8.00;;;;;;;20.15;41.07;99314.20;108183;1257;70074;-67
2024/02/13 10:32:50;;;;;;;19.70;7.90;;;;;;;19.93;42.04;99320.16;108262;1253;72804;-68
2024/02/13 10:35:21;;;;;;;20.20;7.60;;;;;;;19.69;42.52;99322.58;108157;1254;59666;-68
2024/02/13 10:37:50;;;;;;;16.70;7.50;;;;;;;19.58;43.16;99328.34;108255;1256;59523;-68
2024/02/13 10:40:20;;;;;;;17.10;7.70;;;;;;;19.43;43.09;99327.63;108260;1253;74068;-68
2024/02/13 10:42:49;;;;;;;24.80;8.70;;;;;;;19.12;43.02;99327.69;108150;1252;69298;-67
2024/02/13 10:45:17;;;;;;;15.10;6.90;;;;;;;18.73;44.38;99327.36;108035;1254;73695;-67
2024/02/13 10:47:49;;;;;;;22.00;8.70;;;;;;;18.57;44.76;99327.11;108178;1253;59135;-68
2024/02/13 10:50:21;;;;;;;15.50;7.00;;;;;;;18.51;44.94;99328.13;108286;1254;62245;-68
2024/02/13 10:52:54;;;;;;;16.40;7.70;;;;;;;18.31;45.59;99330.85;108248;1254;73135;-68
2024/02/13 10:55:22;;;;;;;17.00;6.80;;;;;;;18.08;45.91;99328.27;108195;1253;70459;-67
2024/02/13 10:57:51;;;;;;;17.70;7.80;;;;;;;17.81;46.68;99328.05;108193;1254;74907;-68
2024/02/13 11:00:21;;;;;;;19.10;7.70;;;;;;;17.57;47.52;99333.67;108267;1254;59594;-68
2024/02/13 11:02:52;;;;;;;20.50;6.80;;;;;;;17.41;47.70;99331.73;108246;1254;59303;-67
2024/02/13 11:05:20;;;;;;;23.50;8.30;;;;;;;17.18;48.47;99332.87;108177;1254;73348;-67
2024/02/13 11:07:47;;;;;;;33.20;7.90;;;;;;;17.04;48.71;99330.17;108133;1254;72600;-68
2024/02/13 11:10:15;;;;;;;23.90;7.80;;;;;;;17.00;48.88;99334.20;108161;1254;74990;-67
2024/02/13 11:12:45;;;;;;;21.80;8.00;;;;;;;17.13;49.08;99335.88;108101;1253;62200;-68
2024/02/13 11:15:18;;;;;;;28.80;8.60;;;;;;;17.17;49.06;99340.55;108110;1254;59406;-69
2024/02/13 11:17:55;;;;;;;27.40;10.50;;;;;;;17.14;49.50;99333.00;108169;1251;74217;-68
2024/02/13 11:20:25;;;;;;;23.10;10.30;;;;;;;17.02;49.91;99333.16;108309;1254;72669;-68
2024/02/13 11:22:59;;;;;;;25.80;9.50;;;;;;;17.00;49.87;99331.73;108209;1254;73280;-68
2024/02/13 11:25:28;;;;;;;24.90;9.30;;;;;;;17.12;50.01;99328.88;108308;1253;59863;-69
2024/02/13 11:28:02;;;;;;;25.30;9.00;;;;;;;17.37;49.75;99325.85;108118;1254;60953;-68
2024/02/13 11:30:29;;;;;;;19.90;8.60;;;;;;;17.52;48.64;99328.79;108163;1257;75079;-68
2024/02/13 11:33:05;;;;;;;23.80;8.60;;;;;;;17.42;48.83;99328.10;108245;1251;68855;-68
2024/02/13 11:35:44;;;;;;;20.90;9.60;;;;;;;17.45;48.42;99325.77;108201;1251;72348;-68
2024/02/13 11:38:16;;;;;;;23.30;8.90;;;;;;;17.50;48.33;99330.14;108229;1257;62031;-69
2024/02/13 11:40:44;;;;;;;;;;;;;;;17.29;48.92;99330.90;108212;1251;59507;-67
2024/02/13 11:43:24;;;;;;;28.40;9.80;;;;;;;17.19;49.00;99329.94;108242;1251;73455;-68
2024/02/13 11:45:52;;;;;;;20.50;8.60;;;;;;;17.12;49.61;99326.23;108224;1251;70449;-65
2024/02/13 11:48:23;;;;;;;21.20;9.00;;;;;;;17.09;49.60;99328.23;108227;1251;70659;-69
2024/02/13 11:50:52;;;;;;;23.40;9.60;;;;;;;16.93;49.91;99326.89;108282;1251;62798;-65
2024/02/13 11:53:21;;;;;;;30.30;10.30;;;;;;;16.79;50.06;99323.34;108371;1251;61374;-65
2024/02/13 11:55:49;;;;;;;26.40;9.20;;;;;;;16.66;50.43;99322.20;108369;1251;71862;-68
2024/02/13 11:58:19;;;;;;;21.50;8.70;;;;;;;16.51;50.77;99322.23;108248;1251;70823;-69
2024/02/13 12:01:03;;;;;;;27.20;8.60;;;;;;;16.52;50.69;99322.00;108241;1251;73193;-69
2024/02/13 12:03:35;;;;;;;24.00;9.50;;;;;;;16.46;50.91;99319.29;108266;1253;63465;-68
2024/02/13 12:06:06;;;;;;;26.60;9.50;;;;;;;16.48;50.70;99320.14;108279;1251;60181;-67